Time;durP1;ratioP1;P1;durP2;ratioP2;P2;SDS_P1;SDS_P2;PMS_P1;PMS_P2;Temp;Humidity;BMP_temperature;BMP_pressure;BME280_temperature;BME280_humidity;BME280_pressure;Samples;Min_cycle;Max_cycle;Signal;HPM_P1;HPM_P2
2023/09/08 00:01:38;;;;;;;10.57;7.00;;;20.80;99.90;;;;;;5054570;28;20086;-69
2023/09/08 00:04:04;;;;;;;8.80;6.47;;;20.80;99.90;;;;;;5055310;28;20087;-70
2023/09/08 00:06:31;;;;;;;9.70;6.68;;;20.70;99.90;;;;;;5055728;28;20068;-68
2023/09/08 00:08:56;;;;;;;8.93;6.70;;;20.70;99.90;;;;;;5054195;28;20503;-69
2023/09/08 00:11:22;;;;;;;9.23;7.07;;;20.70;99.90;;;;;;5054576;28;20468;-68
2023/09/08 00:13:50;;;;;;;12.15;6.60;;;20.70;99.90;;;;;;5054103;28;20094;-70
2023/09/08 00:16:16;;;;;;;10.68;6.97;;;20.60;99.90;;;;;;5055468;28;20057;-69
2023/09/08 00:18:41;;;;;;;10.75;7.38;;;20.60;99.90;;;;;;5054326;28;20060;-69
2023/09/08 00:21:07;;;;;;;16.20;6.95;;;20.50;99.90;;;;;;5055508;28;20487;-68
2023/09/08 00:23:33;;;;;;;10.98;6.22;;;20.60;99.90;;;;;;5054493;28;20457;-68
2023/09/08 00:25:59;;;;;;;9.55;7.28;;;20.50;99.90;;;;;;5054966;28;20052;-70
2023/09/08 00:28:24;;;;;;;10.90;7.05;;;20.50;99.90;;;;;;5054051;28;20072;-69
2023/09/08 00:30:50;;;;;;;10.55;7.35;;;20.40;99.90;;;;;;5054962;28;20072;-69
2023/09/08 00:33:16;;;;;;;11.30;7.10;;;20.40;99.90;;;;;;5037307;28;20052;-69
2023/09/08 00:35:45;;;;;;;9.35;7.20;;;20.40;99.90;;;;;;5054241;28;20169;-69
2023/09/08 00:38:10;;;;;;;8.63;7.22;;;20.30;99.90;;;;;;5054072;28;20127;-69
2023/09/08 00:40:36;;;;;;;10.38;6.90;;;20.30;99.90;;;;;;5055117;28;20120;-68
2023/09/08 00:43:02;;;;;;;13.63;7.50;;;20.20;99.90;;;;;;5053088;28;20053;-68
2023/09/08 00:45:30;;;;;;;9.68;7.28;;;20.20;99.90;;;;;;5053602;28;20502;-69
2023/09/08 00:47:55;;;;;;;12.52;7.18;;;20.20;99.90;;;;;;5087193;28;20049;-69
2023/09/08 00:50:21;;;;;;;13.18;7.45;;;20.10;99.90;;;;;;5053572;28;20467;-68
2023/09/08 00:52:47;;;;;;;9.60;7.60;;;20.10;99.90;;;;;;5053281;28;20045;-70
2023/09/08 00:55:14;;;;;;;9.30;7.65;;;20.10;99.90;;;;;;5054741;28;20178;-69
2023/09/08 00:57:40;;;;;;;11.27;7.45;;;20.10;99.90;;;;;;5054785;28;20055;-69
2023/09/08 01:00:06;;;;;;;12.32;7.75;;;20.00;99.90;;;;;;5053034;28;20045;-68
2023/09/08 01:02:32;;;;;;;10.32;7.80;;;20.00;99.90;;;;;;5070091;28;20443;-69
2023/09/08 01:04:59;;;;;;;14.75;7.32;;;19.90;99.90;;;;;;5053070;28;20072;-68
2023/09/08 01:07:28;;;;;;;11.73;7.53;;;19.90;99.90;;;;;;5054428;28;20102;-69
2023/09/08 01:09:54;;;;;;;9.30;7.68;;;19.90;99.90;;;;;;5054202;28;20041;-69
2023/09/08 01:12:20;;;;;;;11.98;8.35;;;19.80;99.90;;;;;;5053282;28;20536;-68
2023/09/08 01:14:46;;;;;;;11.63;7.70;;;19.80;99.90;;;;;;5053193;28;20049;-68
2023/09/08 01:17:12;;;;;;;9.13;7.10;;;19.80;99.90;;;;;;5053910;28;20505;-68
2023/09/08 01:19:38;;;;;;;11.27;8.13;;;19.80;99.90;;;;;;5052902;28;20053;-68
2023/09/08 01:22:45;;;;;;;9.38;7.32;;;19.80;99.90;;;;;;5053912;28;20084;-69
2023/09/08 01:25:26;;;;;;;9.65;8.02;;;19.70;99.90;;;;;;5033674;28;20850;-69
2023/09/08 01:27:54;;;;;;;13.23;8.00;;;19.70;99.90;;;;;;5052417;28;20574;-70
2023/09/08 01:30:23;;;;;;;11.10;7.43;;;19.60;99.90;;;;;;5054099;28;20095;-68
2023/09/08 01:32:50;;;;;;;10.68;7.82;;;19.60;99.90;;;;;;5054008;28;20053;-69
2023/09/08 01:35:16;;;;;;;10.45;8.05;;;19.60;99.90;;;;;;5052516;28;20053;-68
2023/09/08 01:37:45;;;;;;;9.15;7.85;;;19.50;99.90;;;;;;5054004;28;20121;-69
2023/09/08 01:40:12;;;;;;;10.38;7.90;;;19.60;99.90;;;;;;5053346;28;20041;-68
2023/09/08 01:42:38;;;;;;;9.90;7.97;;;19.50;99.90;;;;;;5053894;28;20082;-68
2023/09/08 01:45:05;;;;;;;8.90;7.60;;;19.50;99.90;;;;;;5052452;28;20149;-69
2023/09/08 01:47:31;;;;;;;11.98;8.60;;;19.50;99.90;;;;;;5053720;28;20504;-68
2023/09/08 01:49:56;;;;;;;11.13;7.68;;;19.40;99.90;;;;;;5052910;28;20083;-68
2023/09/08 01:52:22;;;;;;;11.45;8.18;;;19.40;99.90;;;;;;5052786;28;20053;-69
2023/09/08 01:54:48;;;;;;;11.43;8.05;;;19.40;99.90;;;;;;5052730;28;20049;-68
2023/09/08 01:57:14;;;;;;;12.25;7.80;;;19.30;99.90;;;;;;5053149;28;20040;-69
2023/09/08 01:59:39;;;;;;;10.85;8.20;;;19.30;99.90;;;;;;5053535;28;20136;-68
2023/09/08 02:02:06;;;;;;;9.57;8.15;;;19.30;99.90;;;;;;5052949;28;20045;-68
2023/09/08 02:04:32;;;;;;;10.43;8.30;;;19.20;99.90;;;;;;5052348;28;20041;-69
2023/09/08 02:06:58;;;;;;;10.63;8.60;;;19.20;99.90;;;;;;5052889;28;20060;-70
2023/09/08 02:09:32;;;;;;;9.50;8.05;;;19.20;99.90;;;;;;5053379;28;20069;-69
2023/09/08 02:11:57;;;;;;;11.40;7.68;;;19.10;99.90;;;;;;5052268;28;20056;-72
2023/09/08 02:14:23;;;;;;;11.80;8.13;;;19.10;99.90;;;;;;5052101;28;20056;-69
2023/09/08 02:16:49;;;;;;;13.02;8.43;;;19.10;99.90;;;;;;5053356;28;20087;-69
2023/09/08 02:19:14;;;;;;;10.02;7.88;;;19.10;99.90;;;;;;5051786;28;20384;-69
2023/09/08 02:21:40;;;;;;;10.35;8.05;;;19.00;99.90;;;;;;5052814;28;20048;-70
2023/09/08 02:24:06;;;;;;;10.68;8.07;;;19.00;99.90;;;;;;5051566;28;20045;-69
2023/09/08 02:26:33;;;;;;;9.90;7.78;;;19.00;99.90;;;;;;5051920;28;20087;-68
2023/09/08 02:28:59;;;;;;;11.07;7.88;;;18.90;99.90;;;;;;5052991;28;20126;-72
2023/09/08 02:31:27;;;;;;;12.25;8.40;;;18.90;99.90;;;;;;5051888;28;20049;-68
2023/09/08 02:33:52;;;;;;;10.38;7.93;;;18.90;99.90;;;;;;5053068;28;20123;-69
2023/09/08 02:36:25;;;;;;;13.07;8.57;;;18.90;99.90;;;;;;5052367;28;20534;-74
2023/09/08 02:38:54;;;;;;;9.77;8.48;;;18.80;99.90;;;;;;5052126;28;20132;-69
2023/09/08 02:41:21;;;;;;;11.60;8.50;;;18.80;99.90;;;;;;5052372;28;20444;-68
2023/09/08 02:43:47;;;;;;;12.27;8.25;;;18.80;99.90;;;;;;5050987;28;20139;-69
2023/09/08 02:46:13;;;;;;;10.18;8.43;;;18.80;99.90;;;;;;5052650;28;20049;-69
2023/09/08 02:48:39;;;;;;;13.07;8.90;;;18.80;99.90;;;;;;5051658;28;20044;-69
2023/09/08 02:51:05;;;;;;;12.02;8.75;;;18.80;99.90;;;;;;5049058;28;20539;-69
2023/09/08 02:53:31;;;;;;;10.70;8.07;;;18.70;99.90;;;;;;5052460;28;20137;-70
2023/09/08 02:55:57;;;;;;;10.23;8.50;;;18.70;99.90;;;;;;5052422;28;20535;-69
2023/09/08 02:58:24;;;;;;;11.93;7.78;;;18.70;99.90;;;;;;5050940;28;20045;-68
2023/09/08 03:00:51;;;;;;;11.93;9.13;;;18.60;99.90;;;;;;5052514;28;20044;-69
2023/09/08 03:03:18;;;;;;;10.23;8.70;;;18.60;99.90;;;;;;5051991;28;20048;-69
2023/09/08 03:05:43;;;;;;;11.90;8.57;;;18.60;99.90;;;;;;5051311;28;20375;-69
2023/09/08 03:08:09;;;;;;;10.52;8.65;;;18.60;99.90;;;;;;5034374;28;20039;-69
2023/09/08 03:10:35;;;;;;;13.38;9.30;;;18.50;99.90;;;;;;5051235;28;20157;-70
2023/09/08 03:13:02;;;;;;;12.95;8.95;;;18.50;99.90;;;;;;5051308;28;20080;-68
2023/09/08 03:15:28;;;;;;;11.38;9.15;;;18.50;99.90;;;;;;5050698;28;20458;-69
2023/09/08 03:17:58;;;;;;;13.02;9.13;;;18.40;99.90;;;;;;5052354;28;20049;-68
2023/09/08 03:20:26;;;;;;;13.68;9.10;;;18.40;99.90;;;;;;5033981;28;20041;-69
2023/09/08 03:22:52;;;;;;;11.45;8.63;;;18.40;99.90;;;;;;5052510;28;20410;-69
2023/09/08 03:25:18;;;;;;;11.45;9.70;;;18.40;99.90;;;;;;5050606;28;20064;-69
2023/09/08 03:27:43;;;;;;;12.35;9.90;;;18.40;99.90;;;;;;5034614;28;20037;-69
2023/09/08 03:30:10;;;;;;;12.48;9.70;;;18.30;99.90;;;;;;5050546;28;20048;-69
2023/09/08 03:32:36;;;;;;;9.98;8.70;;;18.30;99.90;;;;;;5052211;28;20055;-69
2023/09/08 03:35:04;;;;;;;10.73;9.43;;;18.30;99.90;;;;;;5052025;28;20071;-69
2023/09/08 03:37:30;;;;;;;13.20;9.48;;;18.20;99.90;;;;;;5051705;28;20045;-69
2023/09/08 03:39:55;;;;;;;9.90;8.77;;;18.20;99.90;;;;;;5051215;28;20052;-69
2023/09/08 03:42:21;;;;;;;13.20;9.93;;;18.20;99.90;;;;;;5051520;28;20502;-69
2023/09/08 03:44:47;;;;;;;15.43;9.70;;;18.20;99.90;;;;;;5050914;28;20076;-69
2023/09/08 03:47:12;;;;;;;14.05;10.30;;;18.20;99.90;;;;;;5050516;28;20053;-69
2023/09/08 03:49:38;;;;;;;12.43;9.13;;;18.20;99.90;;;;;;5052031;28;20041;-69
2023/09/08 03:52:04;;;;;;;11.52;9.38;;;18.10;99.90;;;;;;5050816;28;20111;-68
2023/09/08 03:54:30;;;;;;;11.48;9.57;;;18.10;99.90;;;;;;5050573;28;20291;-69
2023/09/08 03:56:56;;;;;;;13.75;10.15;;;18.10;99.90;;;;;;5051629;28;20049;-69
2023/09/08 03:59:21;;;;;;;11.73;10.43;;;18.10;99.90;;;;;;5050264;28;20037;-69
2023/09/08 04:01:47;;;;;;;13.80;9.63;;;18.10;99.90;;;;;;5051905;28;20048;-69
2023/09/08 04:04:13;;;;;;;12.13;10.45;;;18.10;99.90;;;;;;5033829;28;20544;-70
2023/09/08 04:06:39;;;;;;;13.27;10.05;;;18.00;99.90;;;;;;5050773;28;20056;-68
2023/09/08 04:09:04;;;;;;;12.32;9.85;;;18.00;99.90;;;;;;5051743;28;20140;-69
2023/09/08 04:11:30;;;;;;;13.50;9.70;;;18.00;99.90;;;;;;5050134;28;20037;-69
2023/09/08 04:13:56;;;;;;;14.20;10.73;;;18.00;99.90;;;;;;5051877;28;20133;-68
2023/09/08 04:16:22;;;;;;;12.02;9.82;;;18.00;99.90;;;;;;5050193;28;20104;-69
2023/09/08 04:18:48;;;;;;;11.77;9.43;;;17.90;99.90;;;;;;5051582;28;20049;-69
2023/09/08 04:21:14;;;;;;;13.82;10.02;;;17.90;99.90;;;;;;5051301;28;20094;-72
2023/09/08 04:23:39;;;;;;;11.35;9.90;;;17.90;99.90;;;;;;5050388;28;20045;-69
2023/09/08 04:26:05;;;;;;;14.57;10.32;;;17.90;99.90;;;;;;5051360;28;20446;-69
2023/09/08 04:28:31;;;;;;;12.55;9.93;;;17.80;99.90;;;;;;5033479;28;20044;-68
2023/09/08 04:30:56;;;;;;;11.73;10.18;;;17.80;99.90;;;;;;5050801;28;20338;-69
2023/09/08 04:33:23;;;;;;;14.38;10.40;;;17.80;99.90;;;;;;5051056;28;20490;-68
2023/09/08 04:35:49;;;;;;;11.52;10.20;;;17.80;99.90;;;;;;5051450;28;20045;-69
2023/09/08 04:38:15;;;;;;;12.25;10.50;;;17.80;99.90;;;;;;5051701;28;20049;-69
2023/09/08 04:40:41;;;;;;;21.15;10.27;;;17.70;99.90;;;;;;5054928;28;20391;-69
2023/09/08 04:43:07;;;;;;;15.57;11.05;;;17.70;99.90;;;;;;5053682;28;20588;-68
2023/09/08 04:45:33;;;;;;;13.70;10.88;;;17.70;99.90;;;;;;5054608;28;20124;-69
2023/09/08 04:47:59;;;;;;;12.05;10.50;;;17.60;99.90;;;;;;5053553;28;20143;-68
2023/09/08 04:50:24;;;;;;;13.43;10.85;;;17.70;99.90;;;;;;5053198;28;20044;-69
2023/09/08 04:52:50;;;;;;;14.48;11.02;;;17.60;99.90;;;;;;5054732;28;20037;-69
2023/09/08 04:55:17;;;;;;;13.93;10.57;;;17.60;99.90;;;;;;5053535;28;20049;-69
2023/09/08 04:57:42;;;;;;;13.85;10.32;;;17.60;99.90;;;;;;5054355;28;20040;-69
2023/09/08 05:00:09;;;;;;;13.13;10.55;;;17.60;99.90;;;;;;5054256;28;20041;-70
2023/09/08 05:02:34;;;;;;;13.90;11.13;;;17.60;99.90;;;;;;5053010;28;20044;-69
2023/09/08 05:05:00;;;;;;;15.13;10.70;;;17.60;99.90;;;;;;5053167;28;20102;-69
2023/09/08 05:07:26;;;;;;;12.13;10.90;;;17.50;99.90;;;;;;5054009;28;20140;-70
2023/09/08 05:09:51;;;;;;;14.57;10.45;;;17.50;99.90;;;;;;5054378;28;20416;-68
2023/09/08 05:12:17;;;;;;;14.57;10.30;;;17.50;99.90;;;;;;5053418;28;20127;-68
2023/09/08 05:14:43;;;;;;;14.18;10.70;;;17.40;99.90;;;;;;5053795;28;20485;-69
2023/09/08 05:17:08;;;;;;;13.05;10.88;;;17.40;99.90;;;;;;5054248;28;20045;-69
2023/09/08 05:19:34;;;;;;;13.30;10.95;;;17.40;99.90;;;;;;5052454;28;20045;-69
2023/09/08 05:22:00;;;;;;;14.40;11.27;;;17.50;99.90;;;;;;5052887;28;20060;-69
2023/09/08 05:24:26;;;;;;;16.05;10.90;;;17.40;99.90;;;;;;5052454;28;20053;-69
2023/09/08 05:26:52;;;;;;;13.75;11.13;;;17.40;99.90;;;;;;5054216;28;20106;-69
2023/09/08 05:29:18;;;;;;;14.02;10.95;;;17.40;99.90;;;;;;5054205;28;20068;-69
2023/09/08 05:31:44;;;;;;;16.25;10.38;;;17.40;99.90;;;;;;5052664;28;20486;-69
2023/09/08 05:34:10;;;;;;;20.25;11.77;;;17.40;99.90;;;;;;5053956;28;20052;-69
2023/09/08 05:36:38;;;;;;;14.43;11.32;;;17.50;99.90;;;;;;5052354;28;20453;-68
2023/09/08 05:39:05;;;;;;;13.35;10.85;;;17.60;99.90;;;;;;5052904;28;20094;-68
2023/09/08 05:41:31;;;;;;;14.48;11.32;;;17.90;99.90;;;;;;5052033;28;20044;-69
2023/09/08 05:43:57;;;;;;;13.82;9.88;;;18.50;99.90;;;;;;5054059;28;20114;-69
2023/09/08 05:46:23;;;;;;;14.30;10.07;;;19.20;99.90;;;;;;5053830;28;20049;-70
2023/09/08 05:48:49;;;;;;;13.25;9.55;;;19.80;99.90;;;;;;5035294;28;20063;-70
2023/09/08 05:51:15;;;;;;;15.23;9.75;;;20.40;99.90;;;;;;5053174;28;20308;-70
2023/09/08 05:53:41;;;;;;;13.75;8.80;;;20.90;99.90;;;;;;5053103;28;20053;-69
2023/09/08 05:56:07;;;;;;;12.75;9.65;;;21.30;99.90;;;;;;5053615;28;20537;-70
2023/09/08 05:58:33;;;;;;;10.07;8.88;;;21.20;99.90;;;;;;5051745;28;20447;-69
2023/09/08 06:01:01;;;;;;;11.77;9.35;;;21.00;99.90;;;;;;5053279;28;20107;-70
2023/09/08 06:03:27;;;;;;;12.32;9.82;;;21.00;99.90;;;;;;5052213;28;20530;-72
2023/09/08 06:05:53;;;;;;;13.50;9.35;;;21.10;99.90;;;;;;5053102;28;20120;-69
2023/09/08 06:08:18;;;;;;;13.02;10.27;;;21.00;99.90;;;;;;5053486;28;20045;-70
2023/09/08 06:10:44;;;;;;;12.10;9.88;;;20.90;99.90;;;;;;5035349;28;20056;-70
2023/09/08 06:13:10;;;;;;;13.90;10.13;;;20.60;99.90;;;;;;5052088;28;20052;-70
2023/09/08 06:15:36;;;;;;;13.63;9.75;;;20.40;99.90;;;;;;5052706;28;20394;-69
2023/09/08 06:18:02;;;;;;;12.27;10.18;;;20.30;99.90;;;;;;5052098;28;20141;-70
2023/09/08 06:20:28;;;;;;;15.38;9.88;;;20.00;99.90;;;;;;5053066;28;20095;-70
2023/09/08 06:22:54;;;;;;;14.07;10.20;;;19.90;99.90;;;;;;5052793;28;20049;-70
2023/09/08 06:25:19;;;;;;;14.73;10.35;;;19.80;99.90;;;;;;5053224;28;20060;-69
2023/09/08 06:27:45;;;;;;;11.27;9.63;;;19.80;99.90;;;;;;5034721;28;20102;-69
2023/09/08 06:30:13;;;;;;;12.82;10.25;;;19.80;99.90;;;;;;5052868;28;20538;-69
2023/09/08 06:32:39;;;;;;;17.98;10.30;;;19.80;99.90;;;;;;5052501;28;20213;-70
2023/09/08 06:35:05;;;;;;;15.50;10.35;;;19.90;99.90;;;;;;5051205;28;20076;-70
2023/09/08 06:37:38;;;;;;;19.27;10.45;;;19.80;99.90;;;;;;5068553;28;20056;-70
2023/09/08 06:40:05;;;;;;;12.88;10.25;;;19.80;99.90;;;;;;5052718;28;20077;-67
2023/09/08 06:42:31;;;;;;;13.80;9.82;;;19.90;99.90;;;;;;5052593;28;20366;-69
2023/09/08 06:44:58;;;;;;;16.98;9.88;;;19.90;99.90;;;;;;5050785;28;20140;-69
2023/09/08 06:47:24;;;;;;;14.23;9.98;;;19.90;99.90;;;;;;5035096;28;20124;-70
2023/09/08 06:49:50;;;;;;;15.15;9.38;;;20.10;99.90;;;;;;5052300;28;20459;-70
2023/09/08 06:52:17;;;;;;;15.00;9.68;;;20.20;99.90;;;;;;5034775;28;20041;-70
2023/09/08 06:54:43;;;;;;;12.23;9.73;;;20.30;99.90;;;;;;5052359;28;20059;-69
2023/09/08 06:57:08;;;;;;;12.23;10.15;;;20.30;99.90;;;;;;5052450;28;20449;-68
2023/09/08 06:59:34;;;;;;;12.27;9.82;;;20.40;99.90;;;;;;5051997;28;20124;-72
2023/09/08 07:02:00;;;;;;;13.40;8.82;;;20.50;99.90;;;;;;5050939;28;20057;-70
2023/09/08 07:04:26;;;;;;;16.63;9.43;;;20.50;99.90;;;;;;5085027;28;20040;-70
2023/09/08 07:06:54;;;;;;;15.65;9.65;;;20.60;99.90;;;;;;5034385;28;20045;-69
2023/09/08 07:09:20;;;;;;;12.50;9.73;;;20.70;99.90;;;;;;5067372;28;20080;-68
2023/09/08 07:11:46;;;;;;;12.25;8.75;;;20.80;99.90;;;;;;5034301;28;20091;-69
2023/09/08 07:14:12;;;;;;;10.98;8.73;;;21.00;99.90;;;;;;5052439;28;20041;-69
2023/09/08 07:16:38;;;;;;;15.20;9.48;;;21.80;99.90;;;;;;5050258;28;20502;-70
2023/09/08 07:19:04;;;;;;;13.52;8.73;;;22.60;99.90;;;;;;5051405;28;20068;-69
2023/09/08 07:21:29;;;;;;;14.73;8.95;;;23.10;99.90;;;;;;5067042;28;20036;-70
2023/09/08 07:23:55;;;;;;;11.43;8.25;;;23.40;99.90;;;;;;5050601;28;20162;-70
2023/09/08 07:26:21;;;;;;;10.32;8.27;;;23.60;99.90;;;;;;5052076;28;20098;-69
2023/09/08 07:28:46;;;;;;;12.70;8.20;;;23.50;99.90;;;;;;5050507;28;20057;-69
2023/09/08 07:31:12;;;;;;;12.48;8.30;;;23.40;99.90;;;;;;5050892;28;20045;-69
2023/09/08 07:33:38;;;;;;;12.80;8.38;;;23.20;99.90;;;;;;5034389;28;20072;-70
2023/09/08 07:36:08;;;;;;;14.20;8.05;;;23.10;99.90;;;;;;5052118;28;20081;-70
2023/09/08 07:38:34;;;;;;;10.77;8.05;;;23.00;99.90;;;;;;5051893;28;20041;-69
2023/09/08 07:41:02;;;;;;;10.65;8.57;;;22.90;99.90;;;;;;5051434;28;20118;-68
2023/09/08 07:43:28;;;;;;;14.55;8.18;;;23.00;99.90;;;;;;5051783;28;20088;-70
2023/09/08 07:45:54;;;;;;;9.05;8.05;;;23.30;99.90;;;;;;5050009;28;20064;-69
2023/09/08 07:48:19;;;;;;;9.93;8.40;;;24.00;99.90;;;;;;5050621;28;20053;-70
2023/09/08 07:50:45;;;;;;;12.88;7.57;;;24.90;99.90;;;;;;5050570;28;20052;-69
2023/09/08 07:53:11;;;;;;;12.02;7.70;;;25.90;99.90;;;;;;5050930;28;20048;-68
2023/09/08 07:55:37;;;;;;;10.50;7.25;;;26.90;99.90;;;;;;5050655;28;20102;-69
2023/09/08 07:58:03;;;;;;;11.30;7.47;;;27.60;99.90;;;;;;5050441;28;20045;-69
2023/09/08 08:00:30;;;;;;;9.73;7.35;;;28.30;99.90;;;;;;5050371;28;20487;-70
2023/09/08 08:02:57;;;;;;;10.38;7.68;;;29.00;99.70;;;;;;5050103;28;20525;-70
2023/09/08 08:05:24;;;;;;;9.18;6.60;;;29.70;98.90;;;;;;5051684;28;20073;-69
2023/09/08 08:07:49;;;;;;;9.65;6.80;;;30.30;98.20;;;;;;5051338;28;20037;-70
2023/09/08 08:10:15;;;;;;;10.88;6.90;;;30.80;97.30;;;;;;5050650;28;20037;-69
2023/09/08 08:12:42;;;;;;;7.53;6.22;;;31.30;96.60;;;;;;5050683;28;20052;-69
2023/09/08 08:15:11;;;;;;;13.65;6.18;;;31.70;96.10;;;;;;5055126;28;20045;-70
2023/09/08 08:17:38;;;;;;;9.18;6.18;;;32.20;95.90;;;;;;5055547;28;20134;-69
2023/09/08 08:20:09;;;;;;;8.32;5.75;;;32.50;95.30;;;;;;5055094;28;20144;-68
2023/09/08 08:22:36;;;;;;;11.13;5.88;;;32.90;95.20;;;;;;5055495;28;20045;-69
2023/09/08 08:25:03;;;;;;;10.85;5.63;;;33.30;94.90;;;;;;5054891;28;20056;-69
2023/09/08 08:27:30;;;;;;;8.73;5.53;;;33.80;94.60;;;;;;5054373;28;20079;-69
2023/09/08 08:30:00;;;;;;;11.57;5.47;;;33.90;94.00;;;;;;5054441;28;20506;-69
2023/09/08 08:32:29;;;;;;;11.50;5.57;;;33.90;93.80;;;;;;5055157;28;20127;-70
2023/09/08 08:34:55;;;;;;;11.10;5.00;;;34.10;93.20;;;;;;5054757;28;20041;-68
2023/09/08 08:37:21;;;;;;;9.05;4.72;;;34.30;93.20;;;;;;5055400;28;20359;-69
2023/09/08 08:39:47;;;;;;;8.60;4.65;;;34.60;92.80;;;;;;5037075;28;20053;-69
2023/09/08 08:42:14;;;;;;;6.47;3.92;;;35.10;92.60;;;;;;5055166;28;20049;-69
2023/09/08 08:44:41;;;;;;;7.40;4.20;;;35.30;92.20;;;;;;5053625;28;20060;-69
2023/09/08 08:47:08;;;;;;;6.70;3.88;;;35.60;91.80;;;;;;5054517;28;20079;-69
2023/09/08 08:49:34;;;;;;;10.77;4.20;;;35.80;91.50;;;;;;5054977;28;20045;-69
2023/09/08 08:52:03;;;;;;;4.93;3.80;;;35.90;91.00;;;;;;5054346;28;20423;-69
2023/09/08 08:54:29;;;;;;;8.13;4.25;;;35.80;90.90;;;;;;5054999;28;20053;-69
2023/09/08 08:56:56;;;;;;;5.88;3.90;;;35.60;91.00;;;;;;5054092;28;20395;-69
2023/09/08 08:59:22;;;;;;;7.28;4.18;;;35.80;90.60;;;;;;5053622;28;20045;-68
2023/09/08 09:01:49;;;;;;;8.27;4.13;;;35.90;90.80;;;;;;5054622;28;20101;-69
2023/09/08 09:04:16;;;;;;;11.02;3.95;;;36.30;90.70;;;;;;5054140;28;20052;-69
2023/09/08 09:06:42;;;;;;;14.13;4.15;;;36.20;90.30;;;;;;5054646;28;20074;-69
2023/09/08 09:09:10;;;;;;;5.75;3.50;;;36.00;90.30;;;;;;5053035;28;20138;-70
2023/09/08 09:11:36;;;;;;;8.45;4.18;;;36.10;90.30;;;;;;5053382;28;20513;-69
2023/09/08 09:14:02;;;;;;;6.03;3.92;;;36.40;90.00;;;;;;5052959;28;20049;-69
2023/09/08 09:16:28;;;;;;;10.98;3.90;;;36.50;90.00;;;;;;5053035;28;20051;-68
2023/09/08 09:18:58;;;;;;;5.60;3.72;;;36.60;89.50;;;;;;5052795;28;20128;-70
2023/09/08 09:21:42;;;;;;;8.50;3.85;;;36.50;89.50;;;;;;5054323;28;20041;-69
2023/09/08 09:24:13;;;;;;;5.00;3.63;;;36.30;89.20;;;;;;5052704;28;20157;-70
2023/09/08 09:26:39;;;;;;;5.97;4.00;;;35.50;89.00;;;;;;5054405;28;20045;-70
2023/09/08 09:29:13;;;;;;;7.72;3.78;;;34.60;89.30;;;;;;5053822;28;20051;-69
2023/09/08 09:31:54;;;;;;;7.63;3.95;;;33.90;90.10;;;;;;5054109;28;20458;-69
2023/09/08 09:34:21;;;;;;;6.05;3.85;;;33.50;90.70;;;;;;5053116;28;20111;-68
2023/09/08 09:36:51;;;;;;;5.00;3.90;;;33.30;90.70;;;;;;5052870;28;20091;-68
2023/09/08 09:39:18;;;;;;;5.55;4.13;;;32.90;91.10;;;;;;5053529;28;20084;-68
2023/09/08 09:41:48;;;;;;;8.50;4.05;;;32.50;91.00;;;;;;5053607;28;20045;-68
2023/09/08 09:44:15;;;;;;;10.60;4.40;;;32.10;91.40;;;;;;5052051;28;20045;-69
2023/09/08 09:46:47;;;;;;;6.75;4.03;;;31.90;91.30;;;;;;5053541;28;20053;-68
2023/09/08 09:49:17;;;;;;;9.65;4.18;;;31.70;91.60;;;;;;5053359;28;20101;-68
2023/09/08 09:51:53;;;;;;;6.95;4.40;;;31.60;92.10;;;;;;5053481;28;20426;-69
2023/09/08 09:54:19;;;;;;;6.55;3.85;;;31.40;92.10;;;;;;5053406;28;20056;-69
2023/09/08 09:56:47;;;;;;;7.00;4.07;;;31.10;92.10;;;;;;5053587;28;20055;-69
2023/09/08 09:59:13;;;;;;;7.78;3.88;;;31.00;92.30;;;;;;5052156;28;20083;-68
2023/09/08 10:01:43;;;;;;;8.80;4.10;;;30.90;92.50;;;;;;5053300;28;20033;-69
2023/09/08 10:04:10;;;;;;;8.30;4.05;;;30.90;92.80;;;;;;5051693;28;20045;-69
2023/09/08 10:06:37;;;;;;;7.25;3.72;;;31.00;92.80;;;;;;5053333;28;20059;-69
2023/09/08 10:09:08;;;;;;;5.90;4.20;;;31.00;92.80;;;;;;5052890;28;20041;-69
2023/09/08 10:11:48;;;;;;;5.35;3.75;;;30.90;92.60;;;;;;5052546;28;20128;-69
2023/09/08 10:14:18;;;;;;;7.60;4.47;;;30.80;92.40;;;;;;5052145;28;20386;-69
2023/09/08 10:16:49;;;;;;;7.63;4.00;;;30.80;92.70;;;;;;5039961;28;20078;-68
2023/09/08 10:19:16;;;;;;;7.28;3.97;;;30.60;92.90;;;;;;5052866;28;20052;-69
2023/09/08 10:21:46;;;;;;;8.93;4.53;;;30.60;93.30;;;;;;5052882;28;20040;-68
2023/09/08 10:24:18;;;;;;;5.43;4.35;;;30.70;93.00;;;;;;5052733;28;20052;-69
2023/09/08 10:26:50;;;;;;;5.90;4.00;;;30.70;93.10;;;;;;5051877;28;20041;-69
2023/09/08 10:29:16;;;;;;;10.32;4.30;;;30.50;93.00;;;;;;5052813;28;20262;-70
2023/09/08 10:31:44;;;;;;;6.10;4.32;;;30.40;93.40;;;;;;5052554;28;20564;-69
2023/09/08 10:34:10;;;;;;;8.00;4.60;;;30.30;93.60;;;;;;5052594;28;20152;-69
2023/09/08 10:36:38;;;;;;;7.35;4.68;;;30.30;93.60;;;;;;5034499;28;20056;-69
2023/09/08 10:39:35;;;;;;;7.85;4.60;;;30.40;93.70;;;;;;5052485;28;20056;-73
2023/09/08 10:42:19;;;;;;;8.23;4.10;;;30.40;93.90;;;;;;5052555;28;20041;-69
2023/09/08 10:44:47;;;;;;;7.30;3.80;;;30.30;93.90;;;;;;5051306;28;20061;-69
2023/09/08 10:47:14;;;;;;;9.55;4.60;;;30.40;93.60;;;;;;5052104;28;20153;-68
2023/09/08 10:49:40;;;;;;;8.60;4.65;;;30.30;93.60;;;;;;5052887;28;20049;-69
2023/09/08 10:52:11;;;;;;;8.25;4.40;;;30.20;93.60;;;;;;5034581;28;20037;-70
2023/09/08 10:54:53;;;;;;;6.70;4.18;;;30.20;93.60;;;;;;5051201;28;20503;-69
2023/09/08 10:57:25;;;;;;;5.45;4.10;;;30.20;93.90;;;;;;5052207;28;20040;-68
2023/09/08 10:59:56;;;;;;;6.93;4.20;;;30.30;93.80;;;;;;5051465;28;20053;-69
2023/09/08 11:02:42;;;;;;;5.25;3.88;;;30.30;93.60;;;;;;5050475;28;20048;-69
2023/09/08 11:05:15;;;;;;;6.30;4.05;;;30.30;93.50;;;;;;5050751;28;20509;-70
2023/09/08 11:07:45;;;;;;;6.50;4.07;;;30.40;93.70;;;;;;5052190;28;20053;-68
2023/09/08 11:10:12;;;;;;;5.55;4.10;;;30.40;93.70;;;;;;5050903;28;20057;-70
2023/09/08 11:12:38;;;;;;;7.97;4.30;;;30.50;93.50;;;;;;5050848;28;20053;-69
2023/09/08 11:15:08;;;;;;;9.32;4.53;;;30.40;93.40;;;;;;5051212;28;20080;-70
2023/09/08 11:17:35;;;;;;;7.32;4.50;;;30.40;93.70;;;;;;5050821;28;20045;-68
2023/09/08 11:20:09;;;;;;;6.28;4.28;;;30.40;93.90;;;;;;5050897;28;20048;-70
2023/09/08 11:22:37;;;;;;;8.75;4.50;;;30.40;93.80;;;;;;5035513;28;20056;-68
2023/09/08 11:25:05;;;;;;;5.55;3.90;;;30.40;94.00;;;;;;5050962;28;20045;-69
2023/09/08 11:27:32;;;;;;;7.40;4.28;;;30.30;93.90;;;;;;5051236;28;20514;-69
2023/09/08 11:29:58;;;;;;;6.40;4.35;;;30.40;94.00;;;;;;5033952;28;20072;-69
2023/09/08 11:32:24;;;;;;;7.53;4.00;;;30.40;93.90;;;;;;5051636;28;20130;-70
2023/09/08 11:34:50;;;;;;;9.40;4.28;;;30.30;93.90;;;;;;5052032;28;20045;-70
2023/09/08 11:37:18;;;;;;;8.18;4.20;;;30.30;93.80;;;;;;5051614;28;20411;-69
2023/09/08 11:39:45;;;;;;;8.25;4.03;;;30.30;94.00;;;;;;5050805;28;20128;-69
2023/09/08 11:42:15;;;;;;;11.43;4.60;;;30.30;93.90;;;;;;5051875;28;20072;-69
2023/09/08 11:44:44;;;;;;;7.15;4.00;;;30.40;93.90;;;;;;5051634;28;20064;-68
2023/09/08 11:47:10;;;;;;;9.20;4.45;;;30.50;93.80;;;;;;5051785;28;20095;-70
2023/09/08 11:49:37;;;;;;;7.00;4.03;;;30.50;93.80;;;;;;5054092;28;20053;-69
2023/09/08 11:52:04;;;;;;;6.13;4.13;;;30.40;93.70;;;;;;5053475;28;20459;-69
2023/09/08 11:54:31;;;;;;;7.10;4.20;;;30.50;93.20;;;;;;5037306;28;20044;-70
2023/09/08 11:57:00;;;;;;;7.15;3.70;;;30.50;93.40;;;;;;5054053;28;20053;-69
2023/09/08 11:59:30;;;;;;;6.82;4.07;;;30.60;93.30;;;;;;5053372;28;20547;-69
2023/09/08 12:01:56;;;;;;;6.68;3.97;;;30.70;93.50;;;;;;5054448;28;20053;-68
2023/09/08 12:04:22;;;;;;;6.70;4.13;;;30.80;93.20;;;;;;5054857;28;20048;-69
2023/09/08 12:06:49;;;;;;;5.90;4.00;;;30.70;93.20;;;;;;5053193;28;20510;-68
2023/09/08 12:09:16;;;;;;;7.05;4.10;;;30.80;93.10;;;;;;5054205;28;20053;-68
2023/09/08 12:11:42;;;;;;;8.13;3.83;;;30.70;92.80;;;;;;5087447;28;20052;-68
2023/09/08 12:14:14;;;;;;;8.25;4.03;;;30.80;92.90;;;;;;5055958;28;20481;-69
2023/09/08 12:16:43;;;;;;;5.20;3.90;;;30.90;92.40;;;;;;5039411;28;20508;-71
2023/09/08 12:19:31;;;;;;;6.00;4.05;;;30.90;92.20;;;;;;5054126;28;20049;-69
2023/09/08 12:22:00;;;;;;;7.53;3.80;;;30.90;92.00;;;;;;5063395;28;20078;-69
2023/09/08 12:24:49;;;;;;;5.93;3.80;;;30.90;92.20;;;;;;5051181;28;20056;-69
2023/09/08 12:27:16;;;;;;;6.15;3.72;;;30.90;91.70;;;;;;5043122;28;20510;-69
2023/09/08 12:29:52;;;;;;;7.88;3.78;;;30.90;91.80;;;;;;5052716;28;20537;-69
2023/09/08 12:32:18;;;;;;;7.55;4.05;;;30.80;91.50;;;;;;5053763;28;20057;-69
2023/09/08 12:34:44;;;;;;;6.80;4.18;;;30.70;91.30;;;;;;5053398;28;20061;-69
2023/09/08 12:37:11;;;;;;;7.75;3.78;;;30.80;91.50;;;;;;5053309;28;20394;-69
2023/09/08 12:39:39;;;;;;;5.95;3.83;;;30.90;91.60;;;;;;5032560;28;20502;-68